createdAt,value
2023-02-19T00:01:42.311Z,9.76
2023-02-19T00:04:20.169Z,9.78
2023-02-19T00:06:53.789Z,9.92
2023-02-19T00:09:27.556Z,9.98
2023-02-19T00:12:00.712Z,10.03
2023-02-19T00:14:34.417Z,10.08
2023-02-19T00:17:08.388Z,10.12
2023-02-19T00:19:42.063Z,10.16
2023-02-19T00:22:14.966Z,10.12
2023-02-19T00:24:49.321Z,10.17
2023-02-19T00:27:23.615Z,10.12
2023-02-19T00:29:57.538Z,10.08
2023-02-19T00:32:31.556Z,10.25
2023-02-19T00:35:07.226Z,10.30
2023-02-19T00:37:40.772Z,10.33
2023-02-19T00:40:14.359Z,10.31
2023-02-19T00:42:47.645Z,10.37
2023-02-19T00:45:22.525Z,10.47
2023-02-19T00:47:56.125Z,10.35
2023-02-19T00:50:30.000Z,10.37
2023-02-19T00:53:02.917Z,10.29
2023-02-19T00:55:36.172Z,10.07
2023-02-19T00:58:09.070Z,9.75
2023-02-19T01:00:41.951Z,9.64
2023-02-19T01:03:14.783Z,9.52
2023-02-19T01:05:48.318Z,9.34
2023-02-19T01:08:23.235Z,9.18
2023-02-19T01:10:56.698Z,9.26
2023-02-19T01:13:30.235Z,9.32
2023-02-19T01:16:14.668Z,9.29
2023-02-19T01:18:48.553Z,9.32
2023-02-19T01:21:29.226Z,9.34
2023-02-19T01:24:02.472Z,9.26
2023-02-19T01:26:36.096Z,9.23
2023-02-19T01:29:09.331Z,9.30
2023-02-19T01:31:43.176Z,9.34
2023-02-19T01:34:16.396Z,9.37
2023-02-19T01:36:49.354Z,9.30
2023-02-19T01:39:22.396Z,9.40
2023-02-19T01:41:55.788Z,9.46
2023-02-19T01:44:31.268Z,9.45
2023-02-19T01:47:04.706Z,9.38
2023-02-19T01:49:49.679Z,9.50
2023-02-19T01:52:32.503Z,9.46
2023-02-19T01:55:09.529Z,9.29
2023-02-19T01:57:46.884Z,9.31
2023-02-19T02:00:24.927Z,9.30
2023-02-19T02:03:02.499Z,9.37
2023-02-19T02:06:13.630Z,9.38
2023-02-19T02:09:05.689Z,9.22
2023-02-19T02:11:41.379Z,9.12
2023-02-19T02:14:15.717Z,9.19
2023-02-19T02:17:02.153Z,9.28
2023-02-19T02:19:44.383Z,9.34
2023-02-19T02:22:25.503Z,9.39
2023-02-19T02:25:21.832Z,9.40
2023-02-19T02:28:42.698Z,9.29
2023-02-19T02:31:28.228Z,9.37
2023-02-19T02:34:29.401Z,9.44
2023-02-19T02:37:03.774Z,9.53
2023-02-19T02:39:39.340Z,9.55
2023-02-19T02:42:31.878Z,9.57
2023-02-19T02:45:40.270Z,9.49
2023-02-19T02:48:30.575Z,9.47
2023-02-19T02:51:25.690Z,9.38
2023-02-19T02:54:54.821Z,9.33
2023-02-19T02:57:28.052Z,9.40
2023-02-19T03:00:02.539Z,9.35
2023-02-19T03:02:36.444Z,9.38
2023-02-19T03:05:31.128Z,9.31
2023-02-19T03:08:39.562Z,9.37
2023-02-19T03:11:33.639Z,9.39
2023-02-19T03:14:37.886Z,9.42
2023-02-19T03:17:58.329Z,9.39
2023-02-19T03:20:36.692Z,9.42
2023-02-19T03:23:11.248Z,9.33
2023-02-19T03:26:03.210Z,9.30
2023-02-19T03:29:06.687Z,9.25
2023-02-19T03:31:42.142Z,9.13
2023-02-19T03:34:21.760Z,9.20
2023-02-19T03:37:08.981Z,9.22
2023-02-19T03:39:49.096Z,9.13
2023-02-19T03:42:56.283Z,9.20
2023-02-19T03:45:55.683Z,9.11
2023-02-19T03:48:51.738Z,9.02
2023-02-19T03:51:48.377Z,9.26
2023-02-19T03:54:31.079Z,9.26
2023-02-19T03:57:20.897Z,9.26
2023-02-19T04:00:20.291Z,9.25
2023-02-19T04:03:00.452Z,9.20
2023-02-19T04:05:39.534Z,9.20
2023-02-19T04:08:20.914Z,9.16
2023-02-19T04:11:00.735Z,9.10
2023-02-19T04:13:48.216Z,8.99
2023-02-19T04:16:26.563Z,8.98
2023-02-19T04:19:06.254Z,9.04
2023-02-19T04:21:41.856Z,8.94
2023-02-19T04:24:24.896Z,8.98
2023-02-19T04:26:59.353Z,8.99
2023-02-19T04:29:32.784Z,8.96
2023-02-19T04:32:06.112Z,8.86
2023-02-19T04:34:39.190Z,8.79
2023-02-19T04:37:13.120Z,8.80
2023-02-19T04:39:46.573Z,8.82
2023-02-19T04:42:20.554Z,8.82
2023-02-19T04:44:54.497Z,8.92
2023-02-19T04:47:28.058Z,8.96
2023-02-19T04:50:01.096Z,9.00
2023-02-19T04:52:34.182Z,8.97
2023-02-19T04:55:07.790Z,8.79
2023-02-19T04:57:41.369Z,8.77
2023-02-19T05:00:15.214Z,8.74
2023-02-19T05:02:48.530Z,8.53
2023-02-19T05:05:21.888Z,8.42
2023-02-19T05:07:56.296Z,8.50
2023-02-19T05:10:29.549Z,8.62
2023-02-19T05:13:02.504Z,8.64
2023-02-19T05:15:35.782Z,8.60
2023-02-19T05:18:08.894Z,8.58
2023-02-19T05:20:42.363Z,8.54
2023-02-19T05:23:15.458Z,8.47
2023-02-19T05:25:48.617Z,8.31
2023-02-19T05:28:30.321Z,8.27
2023-02-19T05:31:08.751Z,8.05
2023-02-19T05:33:43.599Z,8.24
2023-02-19T05:36:17.091Z,8.27
2023-02-19T05:38:53.473Z,8.29
2023-02-19T05:41:31.686Z,8.25
2023-02-19T05:44:04.925Z,8.29
2023-02-19T05:46:38.840Z,8.32
2023-02-19T05:49:12.507Z,8.43
2023-02-19T05:51:46.418Z,8.60
2023-02-19T05:54:19.510Z,8.72
2023-02-19T05:56:52.990Z,8.63
2023-02-19T05:59:29.212Z,8.69
2023-02-19T06:02:02.641Z,8.70
2023-02-19T06:04:35.892Z,8.81
2023-02-19T06:07:09.494Z,8.79
2023-02-19T06:09:42.429Z,8.85
2023-02-19T06:12:16.481Z,8.89
2023-02-19T06:14:49.715Z,8.84
2023-02-19T06:17:22.725Z,8.96
2023-02-19T06:19:56.102Z,8.96
2023-02-19T06:22:30.214Z,9.09
2023-02-19T06:25:03.974Z,9.14
2023-02-19T06:27:38.483Z,9.13
2023-02-19T06:30:12.641Z,9.19
2023-02-19T06:32:46.192Z,9.31
2023-02-19T06:35:19.883Z,9.40
2023-02-19T06:37:53.488Z,9.40
2023-02-19T06:40:27.821Z,9.47
2023-02-19T06:43:01.111Z,9.54
2023-02-19T06:45:34.370Z,9.61
2023-02-19T06:48:07.968Z,9.66
2023-02-19T06:50:41.109Z,9.63
2023-02-19T06:53:14.597Z,9.80
2023-02-19T06:55:58.552Z,9.88
2023-02-19T06:58:32.320Z,9.98
2023-02-19T07:01:05.566Z,10.10
2023-02-19T07:03:40.524Z,10.15
2023-02-19T07:06:13.942Z,10.15
2023-02-19T07:08:48.029Z,10.02
2023-02-19T07:11:21.320Z,10.02
2023-02-19T07:14:01.514Z,10.09
2023-02-19T07:16:35.264Z,10.19
2023-02-19T07:19:10.301Z,10.10
2023-02-19T07:21:43.848Z,10.27
2023-02-19T07:24:17.228Z,10.41
2023-02-19T07:26:49.908Z,10.15
2023-02-19T07:29:23.314Z,10.28
2023-02-19T07:31:56.367Z,10.23
2023-02-19T07:34:29.443Z,10.13
2023-02-19T07:37:02.512Z,10.16
2023-02-19T07:39:37.142Z,10.05
2023-02-19T07:42:09.996Z,10.08
2023-02-19T07:44:44.904Z,10.06
2023-02-19T07:47:18.410Z,10.07
2023-02-19T07:49:53.371Z,10.10
2023-02-19T07:52:26.446Z,10.34
2023-02-19T07:55:00.335Z,10.40
2023-02-19T07:57:33.298Z,10.30
2023-02-19T08:00:06.683Z,10.18
2023-02-19T08:03:04.210Z,10.01
2023-02-19T08:05:43.383Z,10.12
2023-02-19T08:08:17.770Z,10.10
2023-02-19T08:11:10.201Z,10.10
2023-02-19T08:13:43.210Z,10.10
2023-02-19T08:16:26.594Z,10.10
2023-02-19T08:19:05.092Z,10.15
2023-02-19T08:21:38.826Z,10.24
2023-02-19T08:24:11.840Z,10.31
2023-02-19T08:26:45.152Z,10.43
2023-02-19T08:29:18.505Z,10.37
2023-02-19T08:31:52.105Z,10.27
2023-02-19T08:34:25.457Z,10.31
2023-02-19T08:36:59.121Z,10.45
2023-02-19T08:39:32.164Z,10.58
2023-02-19T08:42:05.690Z,10.63
2023-02-19T08:44:39.176Z,10.70
2023-02-19T08:47:12.674Z,10.76
2023-02-19T08:49:45.941Z,10.87
2023-02-19T08:52:19.654Z,10.91
2023-02-19T08:54:53.175Z,10.91
2023-02-19T08:57:27.372Z,10.93
2023-02-19T09:00:00.843Z,10.97
2023-02-19T09:02:34.259Z,11.09
2023-02-19T09:05:07.951Z,11.19
2023-02-19T09:07:42.110Z,11.28
2023-02-19T09:10:16.540Z,11.45
2023-02-19T09:12:50.360Z,11.71
2023-02-19T09:15:24.000Z,11.83
2023-02-19T09:17:58.118Z,12.06
2023-02-19T09:20:32.060Z,12.25
2023-02-19T09:23:06.105Z,12.39
2023-02-19T09:25:39.334Z,12.51
2023-02-19T09:28:13.477Z,12.63
2023-02-19T09:30:46.749Z,12.76
2023-02-19T09:33:20.268Z,12.79
2023-02-19T09:35:53.688Z,12.88
2023-02-19T09:38:27.315Z,13.11
2023-02-19T09:41:10.830Z,13.27
2023-02-19T09:43:45.194Z,13.23
2023-02-19T09:46:35.342Z,13.25
2023-02-19T09:49:15.631Z,13.23
2023-02-19T09:51:56.777Z,13.38
2023-02-19T09:54:34.395Z,13.52
2023-02-19T09:57:11.602Z,13.62
2023-02-19T10:00:00.229Z,13.82
2023-02-19T10:02:33.557Z,13.95
2023-02-19T10:05:17.739Z,14.02
2023-02-19T10:07:53.485Z,14.06
2023-02-19T10:10:39.911Z,14.25
2023-02-19T10:13:23.534Z,14.45
2023-02-19T10:16:02.767Z,14.53
2023-02-19T10:18:43.694Z,14.43
2023-02-19T10:21:28.555Z,14.30
2023-02-19T10:24:05.191Z,14.08
2023-02-19T10:26:38.356Z,14.15
2023-02-19T10:29:13.274Z,14.20
2023-02-19T10:31:46.523Z,14.19
2023-02-19T10:34:26.131Z,14.30
2023-02-19T10:36:59.453Z,14.14
2023-02-19T10:39:47.236Z,13.96
2023-02-19T10:42:26.170Z,13.77
2023-02-19T10:45:04.828Z,13.55
2023-02-19T10:47:38.246Z,13.44
2023-02-19T10:50:23.750Z,13.38
2023-02-19T10:53:02.772Z,13.18
2023-02-19T10:55:38.275Z,13.17
2023-02-19T10:58:30.788Z,13.32
2023-02-19T11:01:20.104Z,13.55
2023-02-19T11:03:55.642Z,13.76
2023-02-19T11:06:30.108Z,13.90
2023-02-19T11:09:04.571Z,14.15
2023-02-19T11:11:43.112Z,14.29
2023-02-19T11:14:22.185Z,14.48
2023-02-19T11:17:00.343Z,14.63
2023-02-19T11:19:43.568Z,14.66
2023-02-19T11:22:39.843Z,14.79
2023-02-19T11:25:18.389Z,14.85
2023-02-19T11:28:29.465Z,15.01
2023-02-19T11:31:21.333Z,15.18
2023-02-19T11:34:29.724Z,15.34
2023-02-19T11:37:17.988Z,15.38
2023-02-19T11:39:53.329Z,15.42
2023-02-19T11:42:58.828Z,15.20
2023-02-19T11:45:50.268Z,14.97
2023-02-19T11:48:48.900Z,14.89
2023-02-19T11:51:51.482Z,14.90
2023-02-19T11:54:53.304Z,14.97
2023-02-19T11:57:43.664Z,15.08
2023-02-19T12:00:28.870Z,15.40
2023-02-19T12:03:07.150Z,15.59
2023-02-19T12:05:47.431Z,15.60
2023-02-19T12:08:46.435Z,15.62
2023-02-19T12:11:24.709Z,15.48
2023-02-19T12:14:09.754Z,15.36
2023-02-19T12:16:58.232Z,15.07
2023-02-19T12:19:45.608Z,14.96
2023-02-19T12:22:35.506Z,14.96
2023-02-19T12:25:34.444Z,14.84
2023-02-19T12:28:25.337Z,14.76
2023-02-19T12:31:35.527Z,14.78
2023-02-19T12:34:35.650Z,14.84
2023-02-19T12:37:39.309Z,14.90
2023-02-19T12:40:14.786Z,14.91
2023-02-19T12:43:05.221Z,14.90
2023-02-19T12:45:50.020Z,14.87
2023-02-19T12:48:45.288Z,14.85
2023-02-19T12:51:38.278Z,14.80
2023-02-19T12:54:19.153Z,14.76
2023-02-19T12:57:03.033Z,14.77
2023-02-19T12:59:40.072Z,14.73
2023-02-19T13:02:41.401Z,14.70
2023-02-19T13:05:16.850Z,14.70
2023-02-19T13:08:13.095Z,14.74
2023-02-19T13:11:13.125Z,14.75
2023-02-19T13:14:00.389Z,14.80
2023-02-19T13:16:35.539Z,14.71
2023-02-19T13:19:09.586Z,14.78
2023-02-19T13:22:02.637Z,14.68
2023-02-19T13:24:41.902Z,14.73
2023-02-19T13:30:44.313Z,14.73
2023-02-19T13:33:35.503Z,14.69
2023-02-19T13:36:25.552Z,14.62
2023-02-19T13:39:01.369Z,14.49
2023-02-19T13:41:53.220Z,14.49
2023-02-19T13:44:31.888Z,14.44
2023-02-19T13:47:06.885Z,14.34
2023-02-19T13:49:52.986Z,14.29
2023-02-19T13:52:34.813Z,14.25
2023-02-19T13:55:53.034Z,14.21
2023-02-19T13:58:55.699Z,14.19
2023-02-19T14:01:45.268Z,14.20
2023-02-19T14:04:43.710Z,14.22
2023-02-19T14:07:16.509Z,14.18
2023-02-19T14:09:50.075Z,14.09
2023-02-19T14:12:25.639Z,14.08
2023-02-19T14:14:59.536Z,14.07
2023-02-19T14:17:48.484Z,13.97
2023-02-19T14:20:39.412Z,13.99
2023-02-19T14:23:27.556Z,13.89
2023-02-19T14:26:05.204Z,13.84
2023-02-19T14:28:45.692Z,13.85
2023-02-19T14:31:33.829Z,13.67
2023-02-19T14:34:27.594Z,13.67
2023-02-19T14:37:07.381Z,13.63
2023-02-19T14:39:41.924Z,13.61
2023-02-19T14:42:28.334Z,13.57
2023-02-19T14:45:05.270Z,13.49
2023-02-19T14:47:40.060Z,13.49
2023-02-19T14:50:44.949Z,13.44
2023-02-19T14:53:21.322Z,13.40
2023-02-19T14:55:57.708Z,13.33
2023-02-19T14:58:37.918Z,13.19
2023-02-19T15:01:29.661Z,13.06
2023-02-19T15:04:03.358Z,12.89
2023-02-19T15:06:40.383Z,12.68
2023-02-19T15:09:16.564Z,12.60
2023-02-19T15:11:50.548Z,12.42
2023-02-19T15:14:29.375Z,12.30
2023-02-19T15:17:07.518Z,12.28
2023-02-19T15:19:45.367Z,12.22
2023-02-19T15:22:22.876Z,12.14
2023-02-19T15:24:56.995Z,12.05
2023-02-19T15:27:31.185Z,11.86
2023-02-19T15:30:04.991Z,11.75
2023-02-19T15:32:38.815Z,11.72
2023-02-19T15:35:24.605Z,11.58
2023-02-19T15:37:59.055Z,11.52
2023-02-19T15:40:34.374Z,11.42
2023-02-19T15:43:08.126Z,11.30
2023-02-19T15:45:47.351Z,11.22
2023-02-19T15:48:27.717Z,11.10
2023-02-19T15:51:12.043Z,11.02
2023-02-19T15:53:51.396Z,10.92
2023-02-19T15:56:36.152Z,10.82
2023-02-19T15:59:16.349Z,10.70
2023-02-19T16:01:50.771Z,10.58
2023-02-19T16:04:24.552Z,10.48
2023-02-19T16:07:03.271Z,10.38
2023-02-19T16:09:41.145Z,10.28
2023-02-19T16:12:26.422Z,10.18
2023-02-19T16:15:00.372Z,10.03
2023-02-19T16:17:33.911Z,9.88
2023-02-19T16:20:09.564Z,9.82
2023-02-19T16:22:45.044Z,9.72
2023-02-19T16:25:46.126Z,9.62
2023-02-19T16:28:30.247Z,9.56
2023-02-19T16:31:12.077Z,9.40
2023-02-19T16:33:49.175Z,9.37
2023-02-19T16:36:32.409Z,9.28
2023-02-19T16:39:13.000Z,9.12
2023-02-19T16:41:52.629Z,8.98
2023-02-19T16:44:36.534Z,8.95
2023-02-19T16:47:27.082Z,8.91
2023-02-19T16:50:02.215Z,8.86
2023-02-19T16:52:39.747Z,8.80
2023-02-19T16:55:16.918Z,8.67
2023-02-19T16:57:50.879Z,8.72
2023-02-19T17:00:33.186Z,8.63
2023-02-19T17:03:29.489Z,8.51
2023-02-19T17:06:03.028Z,8.59
2023-02-19T17:08:41.038Z,8.60
2023-02-19T17:11:19.498Z,8.43
2023-02-19T17:13:52.800Z,8.45
2023-02-19T17:16:32.482Z,8.51
2023-02-19T17:19:11.600Z,8.46
2023-02-19T17:21:45.711Z,8.39
2023-02-19T17:24:18.950Z,8.38
2023-02-19T17:26:55.451Z,8.39
2023-02-19T17:29:33.654Z,8.31
2023-02-19T17:32:07.679Z,8.17
2023-02-19T17:34:42.521Z,8.12
2023-02-19T17:37:15.944Z,8.20
2023-02-19T17:39:52.964Z,8.31
2023-02-19T17:42:27.102Z,8.35
2023-02-19T17:45:00.955Z,8.42
2023-02-19T17:47:34.765Z,8.34
2023-02-19T17:50:08.329Z,8.44
2023-02-19T17:52:41.617Z,8.49
2023-02-19T17:55:20.052Z,8.53
2023-02-19T17:57:54.523Z,8.59
2023-02-19T18:00:33.076Z,8.60
2023-02-19T18:03:08.545Z,8.57
2023-02-19T18:05:42.374Z,8.69
2023-02-19T18:08:16.650Z,8.71
2023-02-19T18:10:49.878Z,8.71
2023-02-19T18:13:23.672Z,8.68
2023-02-19T18:15:57.178Z,8.61
2023-02-19T18:18:30.979Z,8.51
2023-02-19T18:21:04.409Z,8.43
2023-02-19T18:23:38.791Z,8.35
2023-02-19T18:26:20.581Z,8.23
2023-02-19T18:28:55.186Z,8.19
2023-02-19T18:31:29.027Z,8.12
2023-02-19T18:34:02.322Z,8.14
2023-02-19T18:36:36.330Z,7.98
2023-02-19T18:39:10.520Z,8.01
2023-02-19T18:41:48.649Z,7.98
2023-02-19T18:44:23.774Z,7.98
2023-02-19T18:46:57.398Z,8.03
2023-02-19T18:49:32.950Z,8.00
2023-02-19T18:52:06.315Z,8.03
2023-02-19T18:54:39.531Z,8.08
2023-02-19T18:57:12.722Z,8.26
2023-02-19T18:59:46.733Z,8.18
2023-02-19T19:02:20.605Z,8.26
2023-02-19T19:04:57.120Z,8.28
2023-02-19T19:07:31.230Z,8.23
2023-02-19T19:10:05.593Z,8.12
2023-02-19T19:12:39.136Z,8.14
2023-02-19T19:15:12.956Z,8.31
2023-02-19T19:17:56.382Z,8.35
2023-02-19T19:20:30.194Z,8.39
2023-02-19T19:23:05.436Z,8.46
2023-02-19T19:25:39.444Z,8.44
2023-02-19T19:28:13.445Z,8.53
2023-02-19T19:30:47.142Z,8.52
2023-02-19T19:33:20.623Z,8.50
2023-02-19T19:35:53.964Z,8.48
2023-02-19T19:38:27.222Z,8.53
2023-02-19T19:41:00.864Z,8.54
2023-02-19T19:43:34.679Z,8.72
2023-02-19T19:46:09.563Z,8.81
2023-02-19T19:48:45.204Z,8.16
2023-02-19T19:51:18.854Z,7.86
2023-02-19T19:53:52.815Z,7.61
2023-02-19T19:56:25.810Z,7.60
2023-02-19T19:58:58.260Z,7.48
2023-02-19T20:01:31.378Z,7.42
2023-02-19T20:04:04.835Z,7.29
2023-02-19T20:06:38.059Z,7.29
2023-02-19T20:09:11.827Z,7.30
2023-02-19T20:11:49.134Z,7.25
2023-02-19T20:14:23.075Z,7.29
2023-02-19T20:16:57.174Z,7.33
2023-02-19T20:19:30.230Z,7.22
2023-02-19T20:22:03.371Z,7.24
2023-02-19T20:24:36.684Z,7.22
2023-02-19T20:27:10.629Z,7.14
2023-02-19T20:29:48.033Z,6.99
2023-02-19T20:32:21.754Z,7.05
2023-02-19T20:34:54.615Z,6.79
2023-02-19T20:37:27.506Z,6.67
2023-02-19T20:40:00.263Z,6.27
2023-02-19T20:42:33.417Z,6.26
2023-02-19T20:45:06.956Z,6.19
2023-02-19T20:47:41.929Z,6.17
2023-02-19T20:50:19.483Z,6.10
2023-02-19T20:52:53.762Z,5.80
2023-02-19T20:55:26.684Z,5.69
2023-02-19T20:57:59.909Z,5.49
2023-02-19T21:00:33.235Z,5.27
2023-02-19T21:03:09.571Z,5.16
2023-02-19T21:05:45.444Z,5.00
2023-02-19T21:08:19.437Z,4.85
2023-02-19T21:10:52.572Z,4.80
2023-02-19T21:13:26.082Z,4.68
2023-02-19T21:15:59.226Z,4.45
2023-02-19T21:18:32.566Z,4.44
2023-02-19T21:21:05.773Z,4.33
2023-02-19T21:23:39.695Z,4.22
2023-02-19T21:26:12.930Z,4.14
2023-02-19T21:28:46.841Z,4.18
2023-02-19T21:31:19.963Z,4.07
2023-02-19T21:33:53.272Z,4.07
2023-02-19T21:36:26.286Z,4.03
2023-02-19T21:38:59.467Z,4.00
2023-02-19T21:41:32.354Z,4.03
2023-02-19T21:44:05.538Z,4.04
2023-02-19T21:46:38.582Z,4.06
2023-02-19T21:49:12.410Z,4.05
2023-02-19T21:51:48.406Z,4.09
2023-02-19T21:54:26.341Z,4.06
2023-02-19T21:56:59.358Z,4.03
2023-02-19T21:59:32.255Z,3.95
2023-02-19T22:02:05.274Z,4.04
2023-02-19T22:04:38.496Z,4.08
2023-02-19T22:07:12.313Z,4.10
2023-02-19T22:09:45.576Z,4.04
2023-02-19T22:12:18.773Z,4.04
2023-02-19T22:14:53.267Z,4.08
2023-02-19T22:17:26.597Z,4.09
2023-02-19T22:19:59.517Z,4.13
2023-02-19T22:22:32.968Z,4.21
2023-02-19T22:25:06.981Z,4.23
2023-02-19T22:27:40.129Z,4.29
2023-02-19T22:30:14.388Z,4.26
2023-02-19T22:32:49.476Z,4.19
2023-02-19T22:35:22.605Z,4.19
2023-02-19T22:37:56.147Z,4.16
2023-02-19T22:40:29.850Z,4.17
2023-02-19T22:43:02.736Z,4.06
2023-02-19T22:45:36.125Z,3.98
2023-02-19T22:48:10.516Z,4.02
2023-02-19T22:50:45.434Z,4.07
2023-02-19T22:53:18.395Z,4.00
2023-02-19T22:55:51.414Z,4.02
2023-02-19T22:58:24.796Z,3.89
2023-02-19T23:00:58.452Z,3.94
2023-02-19T23:03:31.529Z,3.84
2023-02-19T23:06:07.758Z,3.84
2023-02-19T23:08:40.952Z,3.40
2023-02-19T23:11:15.520Z,3.53
2023-02-19T23:13:48.670Z,3.62
2023-02-19T23:16:22.224Z,3.68
2023-02-19T23:18:55.300Z,3.71
2023-02-19T23:21:30.372Z,3.82
2023-02-19T23:24:03.740Z,3.88
2023-02-19T23:26:36.933Z,3.99
2023-02-19T23:29:10.125Z,4.02
2023-02-19T23:31:43.321Z,4.11
2023-02-19T23:34:16.633Z,4.18
2023-02-19T23:36:53.042Z,4.19
2023-02-19T23:39:26.130Z,4.14
2023-02-19T23:42:00.115Z,4.20
2023-02-19T23:44:33.464Z,4.12
2023-02-19T23:47:06.196Z,4.19
2023-02-19T23:49:38.827Z,4.35
2023-02-19T23:52:12.290Z,4.32
2023-02-19T23:54:45.160Z,4.27
2023-02-19T23:57:18.229Z,4.24
2023-02-19T23:59:51.314Z,4.24
